Time;durP1;ratioP1;P1;durP2;ratioP2;P2;SDS_P1;SDS_P2;PMS_P1;PMS_P2;Temp;Humidity;BMP_temperature;BMP_pressure;BME280_temperature;BME280_humidity;BME280_pressure;Samples;Min_cycle;Max_cycle;Signal;HPM_P1;HPM_P2
2023/01/11 00:00:48;;;;;;;181.07;65.13;;;;;;;;;;6225354;28;20052;-80
2023/01/11 00:03:48;;;;;;;96.13;30.00;;;;;;;;;;6227484;28;20033;-80
2023/01/11 00:06:48;;;;;;;148.17;57.63;;;;;;;;;;6228224;28;20056;-80
2023/01/11 00:09:49;;;;;;;123.80;53.80;;;;;;;;;;6225727;28;20080;-80
2023/01/11 00:12:49;;;;;;;125.47;50.53;;;;;;;;;;6220814;28;20367;-80
2023/01/11 00:15:49;;;;;;;133.77;39.47;;;;;;;;;;6228678;28;20021;-80
2023/01/11 00:18:49;;;;;;;242.93;68.00;;;;;;;;;;6220125;28;20018;-80
2023/01/11 00:21:50;;;;;;;169.53;46.07;;;;;;;;;;6226741;28;20044;-80
2023/01/11 00:24:50;;;;;;;112.90;46.08;;;;;;;;;;6227668;28;20053;-80
2023/01/11 00:27:50;;;;;;;94.80;32.33;;;;;;;;;;6235715;28;20105;-81
2023/01/11 00:30:50;;;;;;;99.77;34.13;;;;;;;;;;6225632;28;20014;-80
2023/01/11 00:33:50;;;;;;;72.23;29.93;;;;;;;;;;6225423;28;20029;-80
2023/01/11 00:36:50;;;;;;;119.63;38.47;;;;;;;;;;6232157;28;20034;-80
2023/01/11 00:39:51;;;;;;;183.10;55.20;;;;;;;;;;6224966;28;20073;-80
2023/01/11 00:49:29;;;;;;;90.65;27.58;;;;;;;;;;6228065;28;20029;-80
2023/01/11 00:52:29;;;;;;;108.03;37.53;;;;;;;;;;6225487;28;20029;-80
2023/01/11 00:55:32;;;;;;;98.70;33.57;;;;;;;;;;6223696;28;20025;-79
2023/01/11 00:58:32;;;;;;;81.85;27.80;;;;;;;;;;6225161;28;20018;-80
2023/01/11 01:01:33;;;;;;;101.95;36.13;;;;;;;;;;6224652;28;20425;-81
2023/01/11 01:04:33;;;;;;;83.83;31.13;;;;;;;;;;6223405;28;20054;-80
2023/01/11 01:07:33;;;;;;;75.03;29.77;;;;;;;;;;6216826;28;20095;-80
2023/01/11 01:10:33;;;;;;;83.80;32.03;;;;;;;;;;6230579;28;20370;-81
2023/01/11 01:17:05;;;;;;;85.35;34.97;;;;;;;;;;6253798;28;20037;-80
2023/01/11 01:20:06;;;;;;;74.28;27.80;;;;;;;;;;6230796;28;20029;-80
2023/01/11 01:23:06;;;;;;;76.07;26.37;;;;;;;;;;6230506;28;20017;-81
2023/01/11 01:26:07;;;;;;;68.70;24.23;;;;;;;;;;6232125;28;20036;-80
2023/01/11 01:29:07;;;;;;;56.20;19.10;;;;;;;;;;6231066;28;20137;-81
2023/01/11 01:32:07;;;;;;;137.83;32.40;;;;;;;;;;6229725;28;20017;-80
2023/01/11 01:35:08;;;;;;;87.20;30.43;;;;;;;;;;6228972;28;20309;-80
2023/01/11 01:38:08;;;;;;;63.77;23.97;;;;;;;;;;6234732;28;20105;-80
2023/01/11 01:41:09;;;;;;;89.22;31.08;;;;;;;;;;6229815;28;20393;-80
2023/01/11 01:44:28;;;;;;;93.75;33.38;;;;;;;;;;6245511;28;20382;-80
2023/01/11 01:47:34;;;;;;;120.93;41.55;;;;;;;;;;6228366;28;20512;-80
2023/01/11 01:50:41;;;;;;;107.65;44.97;;;;;;;;;;6241353;28;20017;-81
2023/01/11 01:53:44;;;;;;;87.82;33.15;;;;;;;;;;6226313;28;20014;-81
2023/01/11 01:56:47;;;;;;;85.88;30.25;;;;;;;;;;6246531;28;20119;-80
2023/01/11 01:59:50;;;;;;;122.55;54.53;;;;;;;;;;6228681;28;20017;-80
2023/01/11 02:02:51;;;;;;;78.72;31.60;;;;;;;;;;6245259;28;20053;-80
2023/01/11 02:05:52;;;;;;;75.80;30.03;;;;;;;;;;6206651;28;20388;-80
2023/01/11 02:08:57;;;;;;;67.87;26.20;;;;;;;;;;6239862;28;20030;-80
2023/01/11 02:11:57;;;;;;;81.63;26.20;;;;;;;;;;6227805;28;20013;-80
2023/01/11 02:14:58;;;;;;;79.67;27.07;;;;;;;;;;6228187;28;20017;-80
2023/01/11 02:17:59;;;;;;;81.63;31.27;;;;;;;;;;6220389;28;20434;-80
2023/01/11 02:21:14;;;;;;;77.77;29.60;;;;;;;;;;6230662;28;20022;-80
2023/01/11 02:24:28;;;;;;;87.88;32.30;;;;;;;;;;6232928;28;20053;-80
2023/01/11 02:27:35;;;;;;;83.10;31.23;;;;;;;;;;6247659;28;20024;-81
2023/01/11 02:30:35;;;;;;;91.35;32.17;;;;;;;;;;6229852;28;20017;-81
2023/01/11 02:33:41;;;;;;;91.30;30.87;;;;;;;;;;6247904;28;20377;-81
2023/01/11 02:36:47;;;;;;;89.47;30.95;;;;;;;;;;6244131;28;20013;-80
2023/01/11 02:39:47;;;;;;;127.10;49.65;;;;;;;;;;6244938;28;20410;-80
2023/01/11 02:46:17;;;;;;;114.50;59.25;;;;;;;;;;6238075;28;20477;-81
2023/01/11 02:49:32;;;;;;;104.28;43.13;;;;;;;;;;6224438;28;20484;-81
2023/01/11 02:52:41;;;;;;;137.95;48.55;;;;;;;;;;6245842;28;20440;-80
2023/01/11 02:55:44;;;;;;;99.97;37.53;;;;;;;;;;6244967;28;20103;-81
2023/01/11 02:58:46;;;;;;;143.00;38.28;;;;;;;;;;6223714;28;20080;-81
2023/01/11 03:01:50;;;;;;;121.60;37.75;;;;;;;;;;6220468;28;20022;-81
2023/01/11 03:04:50;;;;;;;106.72;32.58;;;;;;;;;;6228664;28;20017;-81
2023/01/11 03:08:00;;;;;;;72.93;28.03;;;;;;;;;;6226956;28;20046;-81
2023/01/11 03:11:03;;;;;;;94.20;32.20;;;;;;;;;;6227439;28;20097;-80
2023/01/11 03:14:06;;;;;;;103.00;31.15;;;;;;;;;;6240144;28;20044;-80
2023/01/11 03:17:09;;;;;;;75.63;27.25;;;;;;;;;;6239927;28;20477;-80
2023/01/11 03:20:19;;;;;;;72.68;21.27;;;;;;;;;;6225983;28;20021;-80
2023/01/11 03:23:28;;;;;;;72.00;22.88;;;;;;;;;;6228353;28;20409;-80
2023/01/11 03:26:40;;;;;;;80.30;22.20;;;;;;;;;;6249765;28;20028;-80
2023/01/11 03:29:46;;;;;;;61.85;23.85;;;;;;;;;;6236087;28;20481;-80
2023/01/11 03:32:53;;;;;;;53.72;22.40;;;;;;;;;;6242603;28;20014;-81
2023/01/11 03:35:59;;;;;;;61.13;19.15;;;;;;;;;;6238662;28;20108;-80
2023/01/11 03:39:04;;;;;;;63.03;17.13;;;;;;;;;;6206023;28;20431;-81
2023/01/11 03:42:05;;;;;;;57.83;18.15;;;;;;;;;;6222476;28;20053;-80
2023/01/11 03:45:06;;;;;;;71.35;22.10;;;;;;;;;;6222549;28;20028;-81
2023/01/11 03:48:08;;;;;;;63.67;19.17;;;;;;;;;;6244948;28;20017;-80
2023/01/11 03:51:11;;;;;;;67.03;19.27;;;;;;;;;;6200733;28;20026;-81
2023/01/11 03:54:14;;;;;;;53.40;19.10;;;;;;;;;;6237254;28;20096;-81
2023/01/11 03:57:16;;;;;;;66.63;20.42;;;;;;;;;;6222749;28;20017;-80
2023/01/11 04:00:20;;;;;;;66.43;18.85;;;;;;;;;;6236644;28;20343;-81
2023/01/11 04:03:21;;;;;;;57.17;19.08;;;;;;;;;;6237522;28;20541;-81
2023/01/11 04:06:21;;;;;;;66.83;22.00;;;;;;;;;;6223560;28;20022;-80
2023/01/11 04:09:21;;;;;;;92.27;25.17;;;;;;;;;;6230164;28;20049;-80
2023/01/11 04:12:22;;;;;;;72.97;19.43;;;;;;;;;;6225166;28;20022;-80
2023/01/11 04:15:22;;;;;;;62.93;19.47;;;;;;;;;;6228756;28;20013;-80
2023/01/11 04:18:22;;;;;;;124.95;35.83;;;;;;;;;;6230985;28;20079;-79
2023/01/11 04:21:22;;;;;;;86.17;28.03;;;;;;;;;;6230945;28;20500;-80
2023/01/11 04:24:22;;;;;;;68.27;23.70;;;;;;;;;;6248958;28;20017;-80
2023/01/11 04:27:23;;;;;;;106.53;29.33;;;;;;;;;;6231273;28;20018;-80
2023/01/11 04:30:23;;;;;;;76.80;24.23;;;;;;;;;;6231604;28;20489;-80
2023/01/11 04:33:23;;;;;;;88.37;25.13;;;;;;;;;;6230589;28;20013;-80
2023/01/11 04:36:24;;;;;;;50.92;22.35;;;;;;;;;;6251829;28;20013;-79
2023/01/11 04:39:24;;;;;;;77.77;32.13;;;;;;;;;;6230794;28;20254;-81
2023/01/11 04:42:24;;;;;;;98.47;31.43;;;;;;;;;;6231304;28;20503;-80
2023/01/11 04:45:25;;;;;;;83.70;24.00;;;;;;;;;;6248404;28;20061;-80
2023/01/11 04:48:25;;;;;;;118.85;35.67;;;;;;;;;;6216406;28;20014;-80
2023/01/11 04:51:25;;;;;;;117.07;34.75;;;;;;;;;;6217643;28;20041;-80
2023/01/11 04:54:25;;;;;;;79.53;25.77;;;;;;;;;;6235608;28;20013;-80
2023/01/11 04:57:25;;;;;;;87.37;29.60;;;;;;;;;;6220088;28;20040;-80
2023/01/11 05:00:26;;;;;;;54.67;15.43;;;;;;;;;;6221590;28;20017;-80
2023/01/11 05:03:26;;;;;;;87.47;25.47;;;;;;;;;;6234524;28;20487;-80
2023/01/11 05:06:26;;;;;;;87.40;24.40;;;;;;;;;;6243224;28;20431;-79
2023/01/11 05:09:26;;;;;;;95.68;27.70;;;;;;;;;;6220605;28;20105;-80
2023/01/11 05:12:26;;;;;;;105.13;25.92;;;;;;;;;;6218362;28;20462;-80
2023/01/11 05:15:26;;;;;;;98.40;23.50;;;;;;;;;;6225265;28;20049;-80
2023/01/11 05:18:27;;;;;;;74.20;25.70;;;;;;;;;;6226462;28;20010;-80
2023/01/11 05:21:32;;;;;;;118.15;30.98;;;;;;;;;;6223103;28;20026;-80
2023/01/11 05:24:32;;;;;;;126.45;36.85;;;;;;;;;;6243202;28;20014;-80
2023/01/11 05:27:32;;;;;;;104.37;31.43;;;;;;;;;;6230722;28;20021;-80
2023/01/11 05:30:32;;;;;;;74.33;23.73;;;;;;;;;;6221308;28;20009;-79
2023/01/11 05:33:33;;;;;;;82.33;21.73;;;;;;;;;;6223600;28;20005;-80
2023/01/11 05:36:33;;;;;;;60.43;19.50;;;;;;;;;;6235711;28;20111;-80
2023/01/11 05:39:33;;;;;;;59.77;16.43;;;;;;;;;;6216802;28;20461;-79
2023/01/11 05:42:34;;;;;;;84.37;18.37;;;;;;;;;;6234533;28;20440;-79
2023/01/11 05:45:36;;;;;;;94.47;28.83;;;;;;;;;;6239308;28;20489;-80
2023/01/11 05:48:36;;;;;;;97.90;25.38;;;;;;;;;;6226641;28;20496;-80
2023/01/11 05:51:39;;;;;;;58.58;17.70;;;;;;;;;;6242886;28;20017;-80
2023/01/11 05:54:39;;;;;;;69.50;18.25;;;;;;;;;;6239530;28;20014;-79
2023/01/11 05:57:40;;;;;;;116.60;31.07;;;;;;;;;;6239037;28;20032;-81
2023/01/11 06:00:40;;;;;;;88.27;26.00;;;;;;;;;;6242567;28;20497;-81
2023/01/11 06:03:40;;;;;;;90.87;22.90;;;;;;;;;;6225005;28;20017;-80
2023/01/11 06:06:41;;;;;;;87.00;25.37;;;;;;;;;;6238463;28;20397;-80
2023/01/11 06:09:41;;;;;;;47.97;19.13;;;;;;;;;;6228540;28;20119;-80
2023/01/11 06:12:41;;;;;;;89.70;24.93;;;;;;;;;;6246783;28;20096;-80
2023/01/11 06:15:42;;;;;;;122.00;32.60;;;;;;;;;;6228746;28;20036;-80
2023/01/11 06:18:43;;;;;;;80.60;21.23;;;;;;;;;;6244682;28;20017;-80
2023/01/11 06:21:43;;;;;;;97.80;24.80;;;;;;;;;;6228940;28;20021;-80
2023/01/11 06:24:43;;;;;;;73.67;21.40;;;;;;;;;;6230269;28;20040;-81
2023/01/11 06:27:44;;;;;;;69.60;22.45;;;;;;;;;;6235016;28;20084;-81
2023/01/11 06:30:49;;;;;;;80.57;24.95;;;;;;;;;;6234281;28;20424;-81
2023/01/11 06:33:50;;;;;;;81.93;26.25;;;;;;;;;;6244668;28;20024;-81
2023/01/11 06:36:50;;;;;;;114.43;32.33;;;;;;;;;;6226585;28;20021;-81
2023/01/11 06:39:50;;;;;;;116.22;27.08;;;;;;;;;;6239040;28;20478;-80
2023/01/11 06:42:50;;;;;;;93.70;26.20;;;;;;;;;;6242597;28;20018;-81
2023/01/11 06:45:50;;;;;;;85.40;29.23;;;;;;;;;;6214810;28;20108;-81
2023/01/11 06:48:50;;;;;;;86.07;25.27;;;;;;;;;;6240834;28;20028;-80
2023/01/11 06:51:51;;;;;;;96.20;32.73;;;;;;;;;;6245105;28;20473;-80
2023/01/11 06:54:51;;;;;;;116.05;37.67;;;;;;;;;;6237777;28;20048;-80
2023/01/11 06:57:51;;;;;;;123.93;34.65;;;;;;;;;;6218725;28;20026;-80
2023/01/11 07:00:52;;;;;;;130.27;33.07;;;;;;;;;;6235008;28;20477;-81
2023/01/11 07:03:52;;;;;;;122.30;29.00;;;;;;;;;;6234520;28;20025;-80
2023/01/11 07:06:54;;;;;;;127.63;35.47;;;;;;;;;;6234695;28;20028;-80
2023/01/11 07:09:54;;;;;;;109.28;30.20;;;;;;;;;;6237023;28;20684;-80
2023/01/11 07:12:54;;;;;;;82.17;24.33;;;;;;;;;;6214747;28;20021;-80
2023/01/11 07:15:56;;;;;;;84.13;25.57;;;;;;;;;;6220986;28;20075;-80
2023/01/11 07:18:56;;;;;;;101.65;29.23;;;;;;;;;;6235182;28;20021;-80
2023/01/11 07:21:56;;;;;;;95.10;28.00;;;;;;;;;;6225663;28;20428;-80
2023/01/11 07:24:56;;;;;;;93.25;28.95;;;;;;;;;;6232032;28;20018;-80
2023/01/11 07:28:01;;;;;;;114.83;29.40;;;;;;;;;;6235568;28;20425;-81
2023/01/11 07:31:01;;;;;;;97.20;27.38;;;;;;;;;;6221583;28;20499;-80
2023/01/11 07:34:02;;;;;;;94.77;26.27;;;;;;;;;;6226925;28;20025;-80
2023/01/11 07:37:02;;;;;;;97.63;30.00;;;;;;;;;;6227182;28;20067;-80
2023/01/11 07:40:03;;;;;;;117.60;31.83;;;;;;;;;;6218118;28;20017;-80
2023/01/11 07:43:17;;;;;;;178.20;35.00;;;;;;;;;;6234878;28;20021;-81
2023/01/11 07:46:17;;;;;;;122.13;33.70;;;;;;;;;;6240640;28;20036;-80
2023/01/11 07:49:18;;;;;;;297.53;41.13;;;;;;;;;;6226566;28;20485;-80
2023/01/11 07:52:18;;;;;;;84.05;19.35;;;;;;;;;;6225990;28;20460;-80
2023/01/11 07:55:18;;;;;;;101.87;25.00;;;;;;;;;;6226914;28;20040;-81
2023/01/11 07:58:18;;;;;;;115.18;28.98;;;;;;;;;;6248686;28;20389;-80
2023/01/11 08:01:19;;;;;;;116.67;31.40;;;;;;;;;;6226838;28;20088;-80
2023/01/11 08:04:19;;;;;;;86.17;23.63;;;;;;;;;;6246810;28;20478;-80
2023/01/11 08:07:19;;;;;;;120.13;29.33;;;;;;;;;;6243001;28;20478;-80
2023/01/11 08:10:20;;;;;;;99.40;27.05;;;;;;;;;;6228068;28;20044;-80
2023/01/11 08:16:39;;;;;;;90.10;28.38;;;;;;;;;;6249570;28;20030;-80
2023/01/11 08:19:39;;;;;;;187.00;45.53;;;;;;;;;;6228238;28;20032;-81
2023/01/11 08:22:40;;;;;;;74.53;21.73;;;;;;;;;;6243830;28;20013;-80
2023/01/11 08:25:40;;;;;;;169.97;36.30;;;;;;;;;;6229354;28;20049;-79
2023/01/11 08:28:40;;;;;;;107.43;30.03;;;;;;;;;;6236256;28;20010;-79
2023/01/11 08:31:47;;;;;;;206.53;41.13;;;;;;;;;;6237254;28;20006;-79
2023/01/11 08:34:47;;;;;;;133.15;32.47;;;;;;;;;;6224763;28;20018;-79
2023/01/11 08:37:47;;;;;;;135.07;39.78;;;;;;;;;;6242058;28;20024;-80
2023/01/11 08:40:47;;;;;;;211.35;43.60;;;;;;;;;;6221364;28;20045;-79
2023/01/11 08:43:48;;;;;;;165.07;34.97;;;;;;;;;;6244310;28;20017;-79
2023/01/11 08:46:48;;;;;;;178.17;39.00;;;;;;;;;;6232503;28;20049;-80
2023/01/11 08:49:49;;;;;;;77.53;23.93;;;;;;;;;;6239780;28;20020;-80
2023/01/11 08:52:50;;;;;;;114.90;34.37;;;;;;;;;;6237160;28;20057;-79
2023/01/11 08:55:50;;;;;;;151.00;35.00;;;;;;;;;;6221220;28;20381;-80
2023/01/11 08:58:50;;;;;;;153.80;37.70;;;;;;;;;;6233713;28;20444;-80
2023/01/11 09:01:51;;;;;;;139.83;39.50;;;;;;;;;;6225116;28;20044;-80
2023/01/11 09:04:51;;;;;;;146.03;42.93;;;;;;;;;;6239728;28;20018;-79
2023/01/11 09:07:53;;;;;;;177.23;42.40;;;;;;;;;;6224661;28;20037;-79
2023/01/11 09:10:55;;;;;;;112.35;29.48;;;;;;;;;;6240910;28;20017;-79
2023/01/11 09:13:55;;;;;;;161.50;43.47;;;;;;;;;;6233384;28;20041;-79
2023/01/11 09:16:55;;;;;;;142.35;38.38;;;;;;;;;;6241338;28;20051;-80
2023/01/11 09:19:55;;;;;;;168.87;38.80;;;;;;;;;;6241301;28;20030;-80
2023/01/11 09:22:56;;;;;;;183.03;46.00;;;;;;;;;;6218002;28;20026;-81
2023/01/11 09:25:56;;;;;;;159.73;38.87;;;;;;;;;;6228336;28;20021;-80
2023/01/11 09:28:56;;;;;;;211.50;44.30;;;;;;;;;;6236898;28;20075;-80
2023/01/11 09:31:56;;;;;;;158.23;38.60;;;;;;;;;;6244169;28;20009;-80
2023/01/11 09:34:59;;;;;;;135.53;36.77;;;;;;;;;;6229319;28;20119;-80
2023/01/11 09:38:00;;;;;;;115.55;31.33;;;;;;;;;;6225835;28;20389;-80
2023/01/11 09:41:07;;;;;;;119.80;30.25;;;;;;;;;;6240040;28;20041;-80
2023/01/11 09:44:13;;;;;;;212.68;54.42;;;;;;;;;;6237469;28;20036;-81
2023/01/11 09:47:16;;;;;;;161.75;37.15;;;;;;;;;;6225316;28;20469;-81
2023/01/11 09:50:19;;;;;;;142.00;36.50;;;;;;;;;;6232502;28;20429;-81
2023/01/11 09:53:30;;;;;;;162.55;40.88;;;;;;;;;;6214663;28;20016;-81
2023/01/11 09:56:36;;;;;;;141.35;35.55;;;;;;;;;;6221838;28;20379;-82
2023/01/11 09:59:50;;;;;;;151.52;38.53;;;;;;;;;;6220778;28;20017;-81
2023/01/11 10:02:59;;;;;;;171.18;44.72;;;;;;;;;;6223367;28;20033;-81
2023/01/11 10:06:00;;;;;;;146.30;34.67;;;;;;;;;;6215984;28;20025;-81
2023/01/11 10:09:20;;;;;;;160.43;41.40;;;;;;;;;;6212738;28;20397;-81
2023/01/11 10:12:30;;;;;;;157.98;37.85;;;;;;;;;;6208541;28;20038;-81
2023/01/11 10:15:41;;;;;;;145.68;39.13;;;;;;;;;;6216204;28;20565;-81
2023/01/11 10:18:50;;;;;;;147.45;42.80;;;;;;;;;;6217714;28;20072;-81
2023/01/11 10:21:53;;;;;;;167.45;43.78;;;;;;;;;;6203794;28;20018;-81
2023/01/11 10:24:59;;;;;;;128.52;37.30;;;;;;;;;;6214977;28;20021;-80
2023/01/11 10:28:04;;;;;;;146.95;42.45;;;;;;;;;;6214983;28;20474;-80
2023/01/11 10:34:55;;;;;;;119.63;32.58;;;;;;;;;;6197681;28;20018;-80
2023/01/11 10:41:40;;;;;;;162.57;41.30;;;;;;;;;;6190789;28;20030;-81
2023/01/11 10:44:42;;;;;;;154.90;38.63;;;;;;;;;;6218362;28;20045;-81
2023/01/11 10:48:13;;;;;;;133.32;33.65;;;;;;;;;;6213684;28;20442;-81
2023/01/11 10:51:16;;;;;;;117.78;31.92;;;;;;;;;;6194606;28;20036;-80
2023/01/11 10:54:20;;;;;;;153.07;37.63;;;;;;;;;;6211939;28;20017;-80
2023/01/11 10:57:31;;;;;;;119.47;32.60;;;;;;;;;;6217262;28;20028;-80
2023/01/11 11:00:55;;;;;;;179.45;42.65;;;;;;;;;;6211966;28;20022;-80
2023/01/11 11:04:04;;;;;;;119.38;33.03;;;;;;;;;;6210605;28;20383;-81
2023/01/11 11:07:23;;;;;;;218.70;41.78;;;;;;;;;;6212062;28;20026;-82
2023/01/11 11:10:23;;;;;;;92.82;26.95;;;;;;;;;;6208997;28;20030;-81
2023/01/11 11:13:35;;;;;;;147.77;36.33;;;;;;;;;;6207379;28;20029;-81
2023/01/11 11:16:49;;;;;;;100.68;30.55;;;;;;;;;;6204744;28;20049;-79
2023/01/11 11:19:50;;;;;;;127.22;32.60;;;;;;;;;;6218098;28;20029;-79
2023/01/11 11:22:51;;;;;;;122.73;33.10;;;;;;;;;;6215240;28;20433;-79
2023/01/11 11:25:56;;;;;;;110.88;31.05;;;;;;;;;;6218943;28;20033;-79
2023/01/11 11:29:01;;;;;;;129.15;31.88;;;;;;;;;;6210971;28;20067;-79
2023/01/11 11:32:01;;;;;;;75.63;22.73;;;;;;;;;;6216961;28;20493;-78
2023/01/11 11:35:02;;;;;;;106.53;30.07;;;;;;;;;;6216034;28;20018;-78
2023/01/11 11:38:02;;;;;;;102.67;32.13;;;;;;;;;;6214107;28;20026;-79
2023/01/11 11:41:03;;;;;;;136.27;34.43;;;;;;;;;;6204598;28;20076;-78
2023/01/11 11:44:20;;;;;;;116.35;35.15;;;;;;;;;;6207873;28;20496;-78
2023/01/11 11:47:20;;;;;;;91.55;27.27;;;;;;;;;;6214413;28;20094;-78
2023/01/11 11:50:22;;;;;;;120.03;34.65;;;;;;;;;;6210875;28;20448;-77
2023/01/11 11:53:25;;;;;;;129.05;31.25;;;;;;;;;;6215633;28;20053;-78
2023/01/11 11:56:26;;;;;;;106.38;26.95;;;;;;;;;;6216546;28;20068;-79
2023/01/11 11:59:28;;;;;;;124.00;32.90;;;;;;;;;;6217574;28;20390;-78
2023/01/11 12:02:29;;;;;;;98.95;29.88;;;;;;;;;;6206602;28;20033;-78
2023/01/11 12:05:30;;;;;;;133.70;36.30;;;;;;;;;;6211901;28;20080;-77
2023/01/11 12:08:31;;;;;;;108.83;35.23;;;;;;;;;;6231781;28;20498;-77
2023/01/11 12:11:33;;;;;;;175.45;45.95;;;;;;;;;;6228942;28;20021;-77
2023/01/11 12:14:34;;;;;;;141.10;43.63;;;;;;;;;;6239574;28;20385;-78
2023/01/11 12:17:34;;;;;;;147.00;42.60;;;;;;;;;;6220061;28;20026;-78
2023/01/11 12:20:39;;;;;;;149.27;43.47;;;;;;;;;;6215633;28;20068;-78
2023/01/11 12:23:39;;;;;;;162.50;46.00;;;;;;;;;;6212851;28;20189;-78
2023/01/11 12:26:45;;;;;;;160.30;44.07;;;;;;;;;;6220175;28;20041;-78
2023/01/11 12:29:50;;;;;;;150.05;43.03;;;;;;;;;;6226359;28;20607;-78
2023/01/11 12:32:53;;;;;;;119.45;36.70;;;;;;;;;;6239152;28;20024;-77
2023/01/11 12:35:57;;;;;;;110.68;38.22;;;;;;;;;;6226567;28;20041;-78
2023/01/11 12:39:01;;;;;;;124.35;37.30;;;;;;;;;;6215039;28;20031;-77
2023/01/11 12:42:08;;;;;;;111.57;36.65;;;;;;;;;;6220291;28;20010;-77
2023/01/11 12:45:31;;;;;;;124.20;34.13;;;;;;;;;;6240848;28;20489;-78
2023/01/11 12:48:50;;;;;;;131.48;41.28;;;;;;;;;;6193225;28;20045;-77
2023/01/11 12:51:56;;;;;;;134.50;37.58;;;;;;;;;;6220685;28;20025;-77
2023/01/11 12:55:00;;;;;;;120.22;37.85;;;;;;;;;;6223484;28;20277;-77
2023/01/11 12:58:06;;;;;;;121.47;37.47;;;;;;;;;;6234443;28;20022;-77
2023/01/11 13:01:25;;;;;;;114.47;33.80;;;;;;;;;;6242307;28;20013;-77
2023/01/11 13:04:36;;;;;;;118.43;39.92;;;;;;;;;;6231638;28;20513;-78
2023/01/11 13:07:48;;;;;;;109.57;35.97;;;;;;;;;;6235558;28;20104;-78
2023/01/11 13:11:09;;;;;;;116.93;36.73;;;;;;;;;;6241071;28;20009;-78
2023/01/11 13:14:28;;;;;;;107.20;36.33;;;;;;;;;;6239491;28;20026;-77
2023/01/11 13:17:40;;;;;;;103.95;37.22;;;;;;;;;;6219238;28;20065;-78
2023/01/11 13:20:49;;;;;;;139.00;40.10;;;;;;;;;;6236813;28;20064;-78
2023/01/11 13:23:53;;;;;;;127.43;42.72;;;;;;;;;;6232437;28;20056;-78
2023/01/11 13:26:56;;;;;;;149.95;53.40;;;;;;;;;;6232469;28;20389;-78
2023/01/11 13:29:59;;;;;;;175.90;52.85;;;;;;;;;;6217118;28;20322;-78
2023/01/11 13:33:09;;;;;;;133.00;44.60;;;;;;;;;;6238782;28;20482;-78
2023/01/11 13:36:15;;;;;;;139.30;42.42;;;;;;;;;;6219913;28;20025;-78
2023/01/11 13:39:19;;;;;;;113.40;36.65;;;;;;;;;;6223425;28;20055;-78
2023/01/11 13:42:21;;;;;;;121.05;36.45;;;;;;;;;;6224723;28;20037;-78
2023/01/11 13:45:21;;;;;;;;;;;;;;;;;;6242276;28;20082;-79
2023/01/11 13:48:43;;;;;;;136.25;40.88;;;;;;;;;;6239894;28;19909;-78
2023/01/11 13:51:52;;;;;;;118.68;37.83;;;;;;;;;;6223715;28;20147;-78
2023/01/11 13:55:11;;;;;;;116.13;34.22;;;;;;;;;;6221471;28;20017;-78
2023/01/11 13:58:17;;;;;;;111.78;31.60;;;;;;;;;;6244792;28;20025;-78
2023/01/11 14:01:20;;;;;;;112.38;33.78;;;;;;;;;;6225148;28;20024;-79
2023/01/11 14:04:30;;;;;;;149.90;46.22;;;;;;;;;;6241464;28;20052;-78
2023/01/11 14:07:54;;;;;;;157.30;57.00;;;;;;;;;;6222681;28;20026;-79
2023/01/11 14:11:02;;;;;;;153.38;45.78;;;;;;;;;;6215384;28;20030;-78
2023/01/11 14:14:16;;;;;;;114.47;43.25;;;;;;;;;;6236953;28;20021;-78
2023/01/11 14:17:16;;;;;;;126.50;42.92;;;;;;;;;;6245413;28;20029;-78
2023/01/11 14:20:20;;;;;;;123.70;40.95;;;;;;;;;;6219945;28;20030;-78
2023/01/11 14:23:29;;;;;;;99.47;35.55;;;;;;;;;;6245591;28;20051;-79
2023/01/11 14:26:48;;;;;;;123.25;38.45;;;;;;;;;;6246297;28;20030;-79
2023/01/11 14:29:58;;;;;;;122.80;41.83;;;;;;;;;;6241028;28;20041;-79
2023/01/11 14:33:17;;;;;;;114.80;42.10;;;;;;;;;;6227801;28;20010;-79
2023/01/11 14:36:23;;;;;;;138.60;45.60;;;;;;;;;;6239774;28;20159;-79
2023/01/11 14:39:35;;;;;;;152.07;45.97;;;;;;;;;;6222666;28;20116;-79
2023/01/11 14:42:54;;;;;;;143.93;39.33;;;;;;;;;;6227120;28;20061;-81
2023/01/11 14:45:54;;;;;;;131.57;45.05;;;;;;;;;;6215171;28;20029;-81
2023/01/11 14:49:10;;;;;;;182.80;49.78;;;;;;;;;;6244737;28;20079;-81
2023/01/11 14:52:12;;;;;;;180.38;50.33;;;;;;;;;;6241791;28;20036;-81
2023/01/11 14:55:15;;;;;;;165.10;45.70;;;;;;;;;;6242821;28;20362;-81
2023/01/11 14:58:26;;;;;;;185.95;48.72;;;;;;;;;;6225352;28;20497;-81
2023/01/11 15:01:26;;;;;;;158.38;48.97;;;;;;;;;;6239734;28;20507;-82
2023/01/11 15:04:27;;;;;;;178.97;55.63;;;;;;;;;;6229212;28;20022;-81
2023/01/11 15:07:30;;;;;;;194.33;62.93;;;;;;;;;;6225252;28;20022;-80
2023/01/11 15:10:30;;;;;;;205.48;58.78;;;;;;;;;;6241607;28;20047;-81
2023/01/11 15:13:44;;;;;;;176.18;58.00;;;;;;;;;;6245844;28;20059;-80
2023/01/11 15:20:08;;;;;;;231.02;73.15;;;;;;;;;;6246638;28;20025;-80
2023/01/11 15:23:14;;;;;;;184.43;59.25;;;;;;;;;;6238002;28;20469;-80
2023/01/11 15:26:16;;;;;;;200.65;59.70;;;;;;;;;;6247408;28;20017;-81
2023/01/11 15:29:20;;;;;;;169.40;47.03;;;;;;;;;;6249487;28;20053;-80
2023/01/11 15:32:28;;;;;;;149.20;43.92;;;;;;;;;;6249691;28;20385;-81
2023/01/11 15:35:30;;;;;;;174.35;55.25;;;;;;;;;;6245193;28;20029;-80
2023/01/11 15:38:35;;;;;;;182.45;55.40;;;;;;;;;;6232124;28;20029;-80
2023/01/11 15:45:19;;;;;;;170.90;52.00;;;;;;;;;;6242319;28;20021;-81
2023/01/11 15:48:38;;;;;;;161.02;48.72;;;;;;;;;;6215110;28;20018;-81
2023/01/11 15:51:38;;;;;;;139.93;37.97;;;;;;;;;;6222260;28;20388;-81
2023/01/11 15:54:41;;;;;;;127.73;39.53;;;;;;;;;;6225793;28;20018;-81
2023/01/11 15:57:48;;;;;;;108.88;36.60;;;;;;;;;;6226756;28;20021;-81
2023/01/11 16:01:01;;;;;;;143.57;37.75;;;;;;;;;;6224311;28;20124;-80
2023/01/11 16:04:22;;;;;;;148.70;39.47;;;;;;;;;;6231124;28;20418;-81
2023/01/11 16:07:41;;;;;;;98.57;31.20;;;;;;;;;;6243777;28;20022;-81
2023/01/11 16:10:44;;;;;;;152.27;39.53;;;;;;;;;;6226907;28;20030;-81
2023/01/11 16:14:17;;;;;;;124.40;36.92;;;;;;;;;;6226243;28;20025;-81
2023/01/11 16:17:19;;;;;;;149.88;45.03;;;;;;;;;;6175030;28;20097;-80
2023/01/11 16:20:21;;;;;;;125.80;37.22;;;;;;;;;;6221407;28;20025;-81
2023/01/11 16:23:21;;;;;;;95.45;31.13;;;;;;;;;;6220067;28;20010;-81
2023/01/11 16:26:21;;;;;;;124.93;35.13;;;;;;;;;;6222651;28;20122;-81
2023/01/11 16:29:23;;;;;;;117.17;33.83;;;;;;;;;;6220050;28;20010;-81
2023/01/11 16:32:31;;;;;;;103.40;36.17;;;;;;;;;;6219035;28;20100;-81
2023/01/11 16:35:31;;;;;;;103.35;30.45;;;;;;;;;;6220861;28;20105;-81
2023/01/11 16:38:36;;;;;;;85.47;30.00;;;;;;;;;;6240073;28;20024;-81
2023/01/11 16:41:40;;;;;;;90.93;26.63;;;;;;;;;;6243655;28;20488;-81
2023/01/11 16:44:56;;;;;;;109.25;29.25;;;;;;;;;;6217280;28;20010;-81
2023/01/11 16:48:04;;;;;;;102.63;29.13;;;;;;;;;;6238263;28;20032;-81
2023/01/11 16:51:06;;;;;;;86.50;24.83;;;;;;;;;;6227077;28;20029;-81
2023/01/11 16:54:11;;;;;;;109.60;35.08;;;;;;;;;;6220839;28;20024;-81
2023/01/11 16:57:12;;;;;;;100.43;32.30;;;;;;;;;;6248534;28;20017;-81
2023/01/11 17:00:19;;;;;;;70.22;24.88;;;;;;;;;;6249600;28;20021;-81
2023/01/11 17:03:24;;;;;;;135.07;39.38;;;;;;;;;;6222632;28;20481;-81
2023/01/11 17:06:24;;;;;;;120.40;41.05;;;;;;;;;;6221820;28;20040;-80
2023/01/11 17:09:25;;;;;;;103.63;34.27;;;;;;;;;;6229610;28;20038;-80
2023/01/11 17:12:25;;;;;;;109.53;32.13;;;;;;;;;;6226998;28;20045;-80
2023/01/11 17:15:31;;;;;;;92.50;30.03;;;;;;;;;;6224895;28;20029;-80
2023/01/11 17:18:31;;;;;;;127.55;38.15;;;;;;;;;;6241678;28;20026;-80
2023/01/11 17:21:32;;;;;;;141.73;38.43;;;;;;;;;;6226530;28;20084;-81
2023/01/11 17:24:35;;;;;;;112.43;34.10;;;;;;;;;;6216551;28;20044;-80
2023/01/11 17:27:39;;;;;;;122.78;39.17;;;;;;;;;;6234372;28;20030;-81
2023/01/11 17:30:42;;;;;;;135.40;37.33;;;;;;;;;;6237245;28;20018;-80
2023/01/11 17:33:43;;;;;;;147.35;41.08;;;;;;;;;;6216525;28;20037;-80
2023/01/11 17:36:44;;;;;;;132.10;43.13;;;;;;;;;;6220862;28;20029;-80
2023/01/11 17:39:54;;;;;;;136.43;45.73;;;;;;;;;;6234246;28;20075;-81
2023/01/11 17:46:24;;;;;;;120.05;39.63;;;;;;;;;;6241478;28;20041;-80
2023/01/11 17:49:24;;;;;;;117.00;41.17;;;;;;;;;;6224990;28;20037;-80
2023/01/11 17:52:25;;;;;;;179.73;53.60;;;;;;;;;;6221941;28;20021;-80
2023/01/11 17:55:25;;;;;;;170.43;54.97;;;;;;;;;;6247566;28;20044;-80
2023/01/11 17:58:33;;;;;;;111.70;35.73;;;;;;;;;;6232055;28;20446;-80
2023/01/11 18:01:34;;;;;;;167.02;54.20;;;;;;;;;;6215460;28;20486;-80
2023/01/11 18:04:34;;;;;;;173.97;60.00;;;;;;;;;;6228308;28;20053;-81
2023/01/11 18:07:40;;;;;;;134.87;44.03;;;;;;;;;;6231108;28;20029;-80
2023/01/11 18:10:47;;;;;;;138.73;47.80;;;;;;;;;;6229851;28;20393;-80
2023/01/11 18:13:49;;;;;;;193.85;70.78;;;;;;;;;;6234767;28;20029;-80